North Vidor, Texas
Current Conditions -  °F | °C
As of 3:55 AM on Tuesday 21 Oct 2014 (Local Time) from KBMT Reporting Station
Clear Clear  
Wind Chill: 54°   Ceiling: Unl
Heat Index: 54°   Visibility: 10mi
Dew Point: 54°   Wind: 3mph
Humidity: 99%   Direction: 360°N
Pressure: 30.02"   Gusts: NA
Location:  30.1707°N, 94.0082°W
Report Text: KBMT 210855Z AUTO 36003KT 10SM CLR 12/12 A3002 RMK AO2 T01230121
Loading
Personal Weather Stations






























Interactive Weather Map
Tropical Storm Tracking
New forecast layout! Learn more

10-Day Weather Forecast

Advertisements
Track Severe Weather on mobile